Nearby METAR Reports

 

EGSS - Stansted Airport, United Kingdom
Distance from station: NW 15mi, 24km
Updated: 25/02/2018 01:20
Clear
Clear
 Wind from E
Wind: E 13 mph , 20 km/h
Temperature: 0°C
Wind Chill: -6°C
Dew Point: -4°C
Humidity: 75%
Barometer: 1026 hPa
Clouds: Clear
Visibility: 6 miles , 10 km
2018/02/25 01:20 EGSS 250120Z AUTO 08011KT 9999 NCD M00/M04 Q1026
EGMC - Southend-On-Sea, United Kingdom
Distance from station: SE 15mi, 25km
Updated: 25/02/2018 01:20
Few Clouds
Few Clouds
 Wind from E
Wind: E 14 mph , 22 km/h
Temperature: 1°C
Wind Chill: -4°C
Dew Point: -4°C
Humidity: 70%
Barometer: 1025 hPa
Clouds: Few Clouds
Visibility: 6 miles , 10 km
Cloud details: Few Clouds 792 m
2018/02/25 01:20 EGMC 250120Z 09012KT 9999 FEW026 01/M04 Q1025
 
EGLC - London City Airp, United Kingdom
Distance from station: SW 24mi, 39km
Updated: 25/02/2018 01:20
Clear
Clear
 Wind from ENE
Wind: ENE 15 mph , 24 km/h
Temperature: 2°C
Wind Chill: -3°C
Dew Point: -3°C
Humidity: 70%
Barometer: 1025 hPa
Clouds: Clear
Visibility: 6 miles , 10 km
2018/02/25 01:20 EGLC 250120Z AUTO 07013KT 9999 NCD 02/M03 Q1025
EGUW - Wattisham Raf, United Kingdom
Distance from station: NE 34mi, 54km
Updated: 25/02/2018 00:50
Clear
Clear
 Wind from E
Wind: E 12 mph , 19 km/h
Temperature: 0°C
Wind Chill: -5°C
Dew Point: -4°C
Humidity: 75%
Barometer: 1026 hPa
Clouds: Clear
Visibility: 6 miles , 10 km
2018/02/25 00:50 EGUW 250050Z AUTO 10010KT 9999 NCD 00/M04 Q1026
 
EGGW - Luton Airport, United Kingdom
Distance from station: WNW 37mi, 59km
Updated: 25/02/2018 01:20
Few Clouds
Few Clouds
 Wind from E
Wind: E 9 mph , 15 km/h
Temperature: -1°C
Wind Chill: -6°C
Dew Point: -4°C
Humidity: 80%
Barometer: 1025 hPa
Clouds: Few Clouds
Visibility: 6 miles , 10 km
Cloud details: Few Clouds 701 m
2018/02/25 01:20 EGGW 250120Z AUTO 08008KT 9999 FEW023 M01/M04 Q1025
EGWU - Northolt Raf, United Kingdom
Distance from station: WSW 40mi, 64km
Updated: 25/02/2018 00:50
Clear
Clear
 Wind from E
Wind: E 14 mph , 22 km/h
Temperature: 1°C
Wind Chill: -4°C
Dew Point: -3°C
Humidity: 75%
Barometer: 1025 hPa
Clouds: Clear
Visibility: 6 miles , 10 km
2018/02/25 00:50 EGWU 250050Z AUTO 09012KT 9999 // NCD 01/M03 Q1025